KLM566 HUEN-EHAM
Flight info
| Callsign | KLM566 |
|---|---|
| Flight time | N/A |
| Altitude | 36000 |
| Route | NN UW325 SIPKI UT325 BUN UG862 DIR UB730 DJA UA605 CSO UR978 KAMER NAFOQ SURJU PADKO MRM MTL ETREK MADOT MOPEM CACHI AVLON OKRIX BRY CLM NURMO SULEX VEKIN ADUTO N873 FERDI Y18 DENUT DENU3A |
| Aircraft | A333/H-SDE3GHIJ2J3J5M1RVWXY/LB2D1 |
Departure
| Time | 2026-05-08 14:19 |
|---|---|
| Airport | Entebbe International Airport (HUEN) |
Arrival
| Time | N/A |
|---|---|
| Airport | Amsterdam Airport Schiphol (EHAM) |
| Time | Latitude | Longitude | Altitude | Speed | Heading |
|---|---|---|---|---|---|
| 2026-05-08 14:06 | 0.04759 | 32.44135 | 3786 ft | 0 kts | 82° |
| 2026-05-08 14:07 | 0.04758 | 32.44124 | 3783 ft | 3 kts | 82° |
| 2026-05-08 14:08 | 0.04755 | 32.44105 | 3783 ft | 3 kts | 82° |
| 2026-05-08 14:08 | 0.04753 | 32.44091 | 3783 ft | 0 kts | 82° |
| 2026-05-08 14:09 | 0.04787 | 32.44119 | 3788 ft | 16 kts | 20° |
| 2026-05-08 14:10 | 0.04850 | 32.44067 | 3785 ft | 13 kts | 302° |
| 2026-05-08 14:10 | 0.04934 | 32.44002 | 3786 ft | 18 kts | 346° |
| 2026-05-08 14:10 | 0.05086 | 32.43984 | 3781 ft | 25 kts | 354° |
| 2026-05-08 14:10 | 0.05248 | 32.43957 | 3790 ft | 21 kts | 336° |
| 2026-05-08 14:11 | 0.05345 | 32.43875 | 3794 ft | 17 kts | 302° |
| 2026-05-08 14:11 | 0.05404 | 32.43784 | 3792 ft | 9 kts | 302° |
| 2026-05-08 14:11 | 0.05410 | 32.43774 | 3794 ft | 0 kts | 303° |
| 2026-05-08 14:11 | 0.05415 | 32.43766 | 3794 ft | 7 kts | 303° |
| 2026-05-08 14:12 | 0.05469 | 32.43702 | 3795 ft | 11 kts | 317° |
| 2026-05-08 14:12 | 0.05480 | 32.43649 | 3792 ft | 6 kts | 243° |
| 2026-05-08 14:12 | 0.05456 | 32.43634 | 3796 ft | 4 kts | 189° |
| 2026-05-08 14:12 | 0.05435 | 32.43638 | 3792 ft | 0 kts | 172° |
| 2026-05-08 14:13 | 0.05390 | 32.43645 | 3789 ft | 19 kts | 172° |
| 2026-05-08 14:13 | 0.05194 | 32.43673 | 3791 ft | 28 kts | 171° |
| 2026-05-08 14:13 | 0.05071 | 32.43716 | 3790 ft | 17 kts | 123° |
| 2026-05-08 14:13 | 0.05056 | 32.43833 | 3784 ft | 17 kts | 98° |
| 2026-05-08 14:14 | 0.04973 | 32.43877 | 3792 ft | 13 kts | 172° |
| 2026-05-08 14:14 | 0.04952 | 32.43879 | 3791 ft | 0 kts | 173° |
| 2026-05-08 14:16 | 0.04941 | 32.43881 | 3791 ft | 8 kts | 173° |
| 2026-05-08 14:16 | 0.04866 | 32.43937 | 3791 ft | 21 kts | 94° |
| 2026-05-08 14:17 | 0.04973 | 32.44005 | 3782 ft | 22 kts | 354° |
| 2026-05-08 14:17 | 0.05132 | 32.43978 | 3786 ft | 23 kts | 351° |
| 2026-05-08 14:17 | 0.05275 | 32.43946 | 3793 ft | 19 kts | 331° |
| 2026-05-08 14:17 | 0.05356 | 32.43856 | 3794 ft | 17 kts | 304° |
| 2026-05-08 14:18 | 0.05423 | 32.43755 | 3789 ft | 18 kts | 304° |
| 2026-05-08 14:18 | 0.05482 | 32.43681 | 3792 ft | 8 kts | 292° |
| 2026-05-08 14:18 | 0.05459 | 32.43639 | 3794 ft | 7 kts | 203° |
| 2026-05-08 14:18 | 0.05397 | 32.43646 | 3787 ft | 21 kts | 172° |
| 2026-05-08 14:19 | 0.04995 | 32.43701 | 3783 ft | 93 kts | 172° |
| 2026-05-08 14:19 | 0.04138 | 32.43819 | 3787 ft | 153 kts | 172° |
| 2026-05-08 14:19 | 0.02961 | 32.43979 | 4068 ft | 178 kts | 173° |
| 2026-05-08 14:19 | 0.01697 | 32.43972 | 4576 ft | 193 kts | 197° |
| 2026-05-08 14:20 | 0.00679 | 32.43154 | 5254 ft | 189 kts | 240° |
| 2026-05-08 14:20 | 0.00489 | 32.41855 | 5801 ft | 204 kts | 281° |
| 2026-05-08 14:20 | 0.01217 | 32.40562 | 5851 ft | 235 kts | 319° |
| 2026-05-08 14:20 | 0.02638 | 32.39580 | 6187 ft | 258 kts | 330° |
| 2026-05-08 14:21 | 0.04224 | 32.38632 | 6725 ft | 273 kts | 330° |
| 2026-05-08 14:21 | 0.05902 | 32.37633 | 7305 ft | 286 kts | 330° |
| 2026-05-08 14:21 | 0.07593 | 32.36557 | 8109 ft | 290 kts | 326° |
| 2026-05-08 14:21 | 0.09213 | 32.35326 | 8923 ft | 295 kts | 321° |
| 2026-05-08 14:22 | 0.10751 | 32.33944 | 9643 ft | 299 kts | 316° |
| 2026-05-08 14:22 | 0.12216 | 32.32445 | 10245 ft | 306 kts | 313° |
| 2026-05-08 14:22 | 0.13656 | 32.30818 | 10488 ft | 326 kts | 310° |
| 2026-05-08 14:22 | 0.15131 | 32.29007 | 10756 ft | 344 kts | 308° |
| 2026-05-08 14:23 | 0.16620 | 32.27066 | 11070 ft | 360 kts | 307° |
| 2026-05-08 14:23 | 0.18142 | 32.25000 | 11439 ft | 375 kts | 306° |
| 2026-05-08 14:23 | 0.19688 | 32.22841 | 11808 ft | 388 kts | 306° |
| 2026-05-08 14:23 | 0.21259 | 32.20606 | 12267 ft | 397 kts | 305° |
| 2026-05-08 14:24 | 0.22838 | 32.18328 | 12902 ft | 401 kts | 305° |
| 2026-05-08 14:24 | 0.24421 | 32.16022 | 13569 ft | 404 kts | 304° |
| 2026-05-08 14:24 | 0.26012 | 32.13685 | 14179 ft | 408 kts | 304° |
| 2026-05-08 14:24 | 0.27589 | 32.11358 | 14771 ft | 411 kts | 304° |
| 2026-05-08 14:25 | 0.29192 | 32.08977 | 15395 ft | 415 kts | 304° |
| 2026-05-08 14:25 | 0.30804 | 32.06570 | 16013 ft | 418 kts | 304° |
| 2026-05-08 14:25 | 0.32441 | 32.04157 | 16662 ft | 421 kts | 305° |
| 2026-05-08 14:25 | 0.34105 | 32.01728 | 17269 ft | 425 kts | 305° |
| 2026-05-08 14:26 | 0.35783 | 31.99281 | 17893 ft | 428 kts | 305° |
| 2026-05-08 14:26 | 0.37472 | 31.96817 | 18466 ft | 431 kts | 305° |
| 2026-05-08 14:26 | 0.39173 | 31.94335 | 18985 ft | 434 kts | 305° |
| 2026-05-08 14:26 | 0.40887 | 31.91831 | 19492 ft | 437 kts | 305° |
| 2026-05-08 14:27 | 0.42590 | 31.89336 | 19988 ft | 440 kts | 304° |
| 2026-05-08 14:27 | 0.44323 | 31.86793 | 20506 ft | 443 kts | 304° |
| 2026-05-08 14:27 | 0.46065 | 31.84231 | 20979 ft | 447 kts | 304° |
| 2026-05-08 14:27 | 0.47817 | 31.81651 | 21464 ft | 450 kts | 304° |
| 2026-05-08 14:28 | 0.49581 | 31.79051 | 21958 ft | 453 kts | 304° |
| 2026-05-08 14:28 | 0.51350 | 31.76440 | 22461 ft | 456 kts | 304° |
| 2026-05-08 14:28 | 0.53135 | 31.73800 | 22921 ft | 459 kts | 304° |
| 2026-05-08 14:28 | 0.54906 | 31.71179 | 23392 ft | 462 kts | 304° |
| 2026-05-08 14:29 | 0.56711 | 31.68509 | 23796 ft | 465 kts | 304° |
| 2026-05-08 14:29 | 0.58523 | 31.65822 | 24201 ft | 468 kts | 304° |
| 2026-05-08 14:29 | 0.60349 | 31.63109 | 24604 ft | 470 kts | 303° |
| 2026-05-08 14:29 | 0.62179 | 31.60386 | 25014 ft | 473 kts | 303° |
| 2026-05-08 14:30 | 0.64018 | 31.57644 | 25401 ft | 476 kts | 303° |
| 2026-05-08 14:30 | 0.65882 | 31.54894 | 25787 ft | 479 kts | 304° |
| 2026-05-08 14:30 | 0.67774 | 31.52132 | 26190 ft | 481 kts | 304° |
| 2026-05-08 14:30 | 0.69651 | 31.49402 | 26591 ft | 484 kts | 304° |
| 2026-05-08 14:31 | 0.71567 | 31.46618 | 26951 ft | 487 kts | 304° |
| 2026-05-08 14:31 | 0.73491 | 31.43820 | 27359 ft | 490 kts | 304° |
| 2026-05-08 14:31 | 0.75426 | 31.41001 | 27724 ft | 493 kts | 304° |
| 2026-05-08 14:32 | 0.79328 | 31.35311 | 28431 ft | 499 kts | 304° |
| 2026-05-08 14:32 | 0.81293 | 31.32439 | 28798 ft | 501 kts | 303° |
| 2026-05-08 14:32 | 0.83242 | 31.29588 | 29179 ft | 503 kts | 303° |
| 2026-05-08 14:32 | 0.85217 | 31.26700 | 29724 ft | 501 kts | 303° |
| 2026-05-08 14:33 | 0.87176 | 31.23833 | 30188 ft | 500 kts | 303° |
| 2026-05-08 14:33 | 0.89147 | 31.20946 | 30623 ft | 499 kts | 303° |
| 2026-05-08 14:33 | 0.91079 | 31.18115 | 31067 ft | 499 kts | 303° |
| 2026-05-08 14:33 | 0.93033 | 31.15249 | 31500 ft | 498 kts | 303° |
| 2026-05-08 14:34 | 0.94981 | 31.12391 | 31974 ft | 497 kts | 303° |
| 2026-05-08 14:34 | 0.96930 | 31.09531 | 32450 ft | 496 kts | 303° |
| 2026-05-08 14:34 | 0.98870 | 31.06683 | 32906 ft | 494 kts | 303° |
| 2026-05-08 14:34 | 1.00797 | 31.03855 | 33528 ft | 489 kts | 303° |
| 2026-05-08 14:35 | 1.02714 | 31.01040 | 33959 ft | 490 kts | 303° |
| 2026-05-08 14:35 | 1.04631 | 30.98225 | 34257 ft | 491 kts | 303° |
| 2026-05-08 14:35 | 1.06529 | 30.95435 | 34643 ft | 490 kts | 303° |
| 2026-05-08 14:35 | 1.08447 | 30.92616 | 35032 ft | 489 kts | 303° |
| 2026-05-08 14:36 | 1.10364 | 30.89797 | 35439 ft | 487 kts | 303° |
| 2026-05-08 14:36 | 1.12246 | 30.87029 | 35666 ft | 477 kts | 303° |
| 2026-05-08 14:36 | 1.14107 | 30.84290 | 35778 ft | 477 kts | 303° |
| 2026-05-08 14:36 | 1.15965 | 30.81557 | 35818 ft | 483 kts | 303° |
| 2026-05-08 14:37 | 1.19779 | 30.75940 | 35836 ft | 488 kts | 303° |
| 2026-05-08 14:37 | 1.23580 | 30.70341 | 35841 ft | 484 kts | 303° |
| 2026-05-08 14:38 | 1.27365 | 30.64820 | 35838 ft | 482 kts | 304° |
| 2026-05-08 14:38 | 1.31216 | 30.59305 | 35838 ft | 484 kts | 304° |
| 2026-05-08 14:39 | 1.35086 | 30.53784 | 35836 ft | 484 kts | 304° |
| 2026-05-08 14:39 | 1.38917 | 30.48317 | 35844 ft | 482 kts | 304° |
| 2026-05-08 14:40 | 1.42760 | 30.42825 | 35853 ft | 482 kts | 304° |
| 2026-05-08 14:40 | 1.46596 | 30.37334 | 35858 ft | 482 kts | 304° |
| 2026-05-08 14:41 | 1.50433 | 30.31836 | 35862 ft | 482 kts | 304° |
| 2026-05-08 14:41 | 1.54255 | 30.26338 | 35866 ft | 481 kts | 304° |
| 2026-05-08 14:42 | 1.58414 | 30.21078 | 35867 ft | 483 kts | 309° |
| 2026-05-08 14:42 | 1.62765 | 30.16002 | 35870 ft | 483 kts | 310° |
| 2026-05-08 14:43 | 1.66469 | 30.11759 | 35871 ft | 483 kts | 310° |
| 2026-05-08 14:43 | 1.71616 | 30.05892 | 35873 ft | 482 kts | 310° |
| 2026-05-08 14:44 | 1.76044 | 30.00850 | 35869 ft | 483 kts | 310° |
| 2026-05-08 14:44 | 1.79725 | 29.96657 | 35869 ft | 483 kts | 310° |
| 2026-05-08 14:45 | 1.84876 | 29.90781 | 35867 ft | 483 kts | 310° |
| 2026-05-08 14:45 | 1.89299 | 29.85728 | 35868 ft | 482 kts | 310° |
| 2026-05-08 14:46 | 1.93001 | 29.81549 | 35864 ft | 482 kts | 311° |
| 2026-05-08 14:46 | 1.97488 | 29.76539 | 35863 ft | 483 kts | 311° |
| 2026-05-08 14:47 | 2.01986 | 29.71552 | 35862 ft | 483 kts | 311° |
| 2026-05-08 14:47 | 2.06493 | 29.66563 | 35858 ft | 483 kts | 311° |
| 2026-05-08 14:48 | 2.10995 | 29.61575 | 35855 ft | 483 kts | 311° |
| 2026-05-08 14:48 | 2.15472 | 29.56606 | 35858 ft | 483 kts | 311° |
| 2026-05-08 14:49 | 2.19984 | 29.51593 | 35857 ft | 484 kts | 311° |
| 2026-05-08 14:49 | 2.24501 | 29.46594 | 35852 ft | 484 kts | 311° |
| 2026-05-08 14:50 | 2.29001 | 29.41620 | 35848 ft | 484 kts | 311° |
| 2026-05-08 14:50 | 2.33526 | 29.36621 | 35852 ft | 484 kts | 311° |
| 2026-05-08 14:51 | 2.38057 | 29.31610 | 35848 ft | 485 kts | 311° |
| 2026-05-08 14:51 | 2.42561 | 29.26629 | 35848 ft | 485 kts | 311° |
| 2026-05-08 14:52 | 2.49354 | 29.19109 | 35841 ft | 486 kts | 311° |
| 2026-05-08 14:53 | 2.53898 | 29.14079 | 35839 ft | 486 kts | 311° |
| 2026-05-08 14:53 | 2.58404 | 29.09089 | 35839 ft | 486 kts | 311° |
| 2026-05-08 14:54 | 2.62941 | 29.04063 | 35830 ft | 486 kts | 311° |
| 2026-05-08 14:54 | 2.67472 | 28.99040 | 35831 ft | 486 kts | 311° |
| 2026-05-08 14:55 | 2.72002 | 28.94018 | 35830 ft | 486 kts | 311° |
| 2026-05-08 14:55 | 2.76497 | 28.89034 | 35831 ft | 485 kts | 311° |
| 2026-05-08 14:56 | 2.81013 | 28.84023 | 35831 ft | 484 kts | 311° |
| 2026-05-08 14:56 | 2.85536 | 28.79005 | 35829 ft | 485 kts | 311° |
| 2026-05-08 14:57 | 2.90063 | 28.73989 | 35827 ft | 485 kts | 311° |
| 2026-05-08 14:57 | 2.94589 | 28.68981 | 35828 ft | 484 kts | 311° |
| 2026-05-08 14:58 | 2.99081 | 28.64010 | 35830 ft | 484 kts | 311° |
| 2026-05-08 14:58 | 3.03618 | 28.58986 | 35824 ft | 485 kts | 311° |
| 2026-05-08 14:59 | 3.08123 | 28.53995 | 35823 ft | 485 kts | 311° |
| 2026-05-08 14:59 | 3.14880 | 28.46508 | 35823 ft | 484 kts | 311° |
| 2026-05-08 15:00 | 3.19403 | 28.41494 | 35818 ft | 484 kts | 311° |
| 2026-05-08 15:00 | 3.23929 | 28.36475 | 35819 ft | 485 kts | 311° |
| 2026-05-08 15:01 | 3.28424 | 28.31490 | 35815 ft | 485 kts | 311° |
| 2026-05-08 15:01 | 3.32950 | 28.26469 | 35814 ft | 484 kts | 311° |
| 2026-05-08 15:02 | 3.37468 | 28.21457 | 35813 ft | 485 kts | 311° |
| 2026-05-08 15:02 | 3.41991 | 28.16437 | 35817 ft | 485 kts | 311° |
| 2026-05-08 15:03 | 3.46513 | 28.11417 | 35815 ft | 485 kts | 311° |
| 2026-05-08 15:03 | 3.51001 | 28.06435 | 35814 ft | 484 kts | 311° |
| 2026-05-08 15:04 | 3.55518 | 28.01418 | 35811 ft | 484 kts | 311° |
| 2026-05-08 15:04 | 3.60042 | 27.96394 | 35810 ft | 485 kts | 311° |
| 2026-05-08 15:05 | 3.64568 | 27.91367 | 35811 ft | 485 kts | 311° |
| 2026-05-08 15:05 | 3.69055 | 27.86384 | 35806 ft | 484 kts | 311° |
| 2026-05-08 15:06 | 3.73564 | 27.81375 | 35813 ft | 484 kts | 311° |
| 2026-05-08 15:06 | 3.78080 | 27.76357 | 35813 ft | 485 kts | 311° |
| 2026-05-08 15:07 | 3.82608 | 27.71324 | 35812 ft | 485 kts | 311° |
| 2026-05-08 15:07 | 3.87121 | 27.66308 | 35813 ft | 484 kts | 311° |
| 2026-05-08 15:08 | 3.90839 | 27.62174 | 35811 ft | 484 kts | 311° |
| 2026-05-08 15:08 | 3.96107 | 27.56318 | 35812 ft | 484 kts | 311° |
| 2026-05-08 15:09 | 4.00621 | 27.51297 | 35815 ft | 484 kts | 311° |
| 2026-05-08 15:09 | 4.05120 | 27.46293 | 35811 ft | 483 kts | 311° |
| 2026-05-08 15:10 | 4.09585 | 27.41325 | 35814 ft | 483 kts | 311° |
| 2026-05-08 15:10 | 4.14084 | 27.36321 | 35817 ft | 483 kts | 311° |
| 2026-05-08 15:11 | 4.18580 | 27.31316 | 35816 ft | 483 kts | 311° |
| 2026-05-08 15:11 | 4.23076 | 27.26310 | 35814 ft | 483 kts | 311° |
| 2026-05-08 15:12 | 4.27565 | 27.21315 | 35814 ft | 482 kts | 311° |
| 2026-05-08 15:12 | 4.32052 | 27.16319 | 35818 ft | 482 kts | 311° |
| 2026-05-08 15:13 | 4.36512 | 27.11350 | 35815 ft | 482 kts | 311° |
| 2026-05-08 15:13 | 4.41009 | 27.06343 | 35815 ft | 482 kts | 310° |
| 2026-05-08 15:14 | 4.45492 | 27.01348 | 35818 ft | 481 kts | 310° |
| 2026-05-08 15:14 | 4.49209 | 26.97207 | 35817 ft | 481 kts | 310° |
| 2026-05-08 15:15 | 4.54413 | 26.91407 | 35818 ft | 481 kts | 310° |
| 2026-05-08 15:15 | 4.58893 | 26.86409 | 35816 ft | 481 kts | 310° |
| 2026-05-08 15:16 | 4.63374 | 26.81411 | 35815 ft | 480 kts | 310° |
| 2026-05-08 15:16 | 4.67817 | 26.76455 | 35815 ft | 480 kts | 310° |
| 2026-05-08 15:17 | 4.72290 | 26.71464 | 35815 ft | 480 kts | 310° |
| 2026-05-08 15:17 | 4.76736 | 26.66501 | 35816 ft | 480 kts | 311° |
| 2026-05-08 15:18 | 4.81204 | 26.61513 | 35815 ft | 479 kts | 311° |
| 2026-05-08 15:18 | 4.85661 | 26.56538 | 35817 ft | 479 kts | 311° |
| 2026-05-08 15:19 | 4.90090 | 26.51592 | 35816 ft | 479 kts | 311° |
| 2026-05-08 15:19 | 4.94553 | 26.46609 | 35810 ft | 478 kts | 311° |
| 2026-05-08 15:20 | 4.98995 | 26.41646 | 35811 ft | 477 kts | 311° |
| 2026-05-08 15:20 | 5.03400 | 26.36725 | 35813 ft | 477 kts | 311° |
| 2026-05-08 15:21 | 5.07848 | 26.31753 | 35809 ft | 478 kts | 311° |
| 2026-05-08 15:21 | 5.12291 | 26.26785 | 35809 ft | 477 kts | 311° |
| 2026-05-08 15:22 | 5.16699 | 26.21855 | 35810 ft | 477 kts | 311° |
| 2026-05-08 15:22 | 5.21131 | 26.16897 | 35808 ft | 477 kts | 311° |
| 2026-05-08 15:23 | 5.25575 | 26.11929 | 35813 ft | 478 kts | 311° |
| 2026-05-08 15:23 | 5.29997 | 26.07000 | 35811 ft | 477 kts | 311° |
| 2026-05-08 15:24 | 5.34439 | 26.02052 | 35812 ft | 476 kts | 311° |
| 2026-05-08 15:24 | 5.38884 | 25.97098 | 35812 ft | 477 kts | 311° |
| 2026-05-08 15:25 | 5.43310 | 25.92163 | 35816 ft | 478 kts | 311° |
| 2026-05-08 15:25 | 5.47757 | 25.87205 | 35814 ft | 477 kts | 311° |
| 2026-05-08 15:26 | 5.52191 | 25.82257 | 35818 ft | 477 kts | 311° |
| 2026-05-08 15:26 | 5.56632 | 25.77300 | 35817 ft | 478 kts | 311° |
| 2026-05-08 15:27 | 5.61048 | 25.72370 | 35818 ft | 478 kts | 311° |
| 2026-05-08 15:27 | 5.65493 | 25.67406 | 35824 ft | 477 kts | 311° |